createdAt,value
2018-06-08T00:02:21.863Z,18.54
2018-06-08T00:04:50.258Z,18.49
2018-06-08T00:07:18.627Z,18.46
2018-06-08T00:09:47.019Z,18.41
2018-06-08T00:12:15.387Z,18.35
2018-06-08T00:14:43.786Z,18.31
2018-06-08T00:17:12.159Z,18.28
2018-06-08T00:19:40.554Z,18.26
2018-06-08T00:22:08.927Z,18.24
2018-06-08T00:24:37.335Z,18.20
2018-06-08T00:27:05.766Z,18.13
2018-06-08T00:29:34.138Z,18.09
2018-06-08T00:32:02.539Z,18.03
2018-06-08T00:34:30.919Z,18.01
2018-06-08T00:36:59.339Z,17.98
2018-06-08T00:39:27.710Z,17.96
2018-06-08T00:41:56.111Z,17.94
2018-06-08T00:44:24.478Z,17.92
2018-06-08T00:46:52.870Z,17.88
2018-06-08T00:49:21.249Z,17.84
2018-06-08T00:51:49.642Z,17.81
2018-06-08T00:54:18.033Z,17.78
2018-06-08T00:56:57.898Z,17.73
2018-06-08T00:59:26.269Z,17.68
2018-06-08T01:01:54.687Z,17.63
2018-06-08T01:04:23.060Z,17.59
2018-06-08T01:06:51.475Z,17.56
2018-06-08T01:09:19.851Z,17.52
2018-06-08T01:11:48.222Z,17.48
2018-06-08T01:14:16.613Z,17.45
2018-06-08T01:16:44.979Z,17.40
2018-06-08T01:19:13.374Z,17.36
2018-06-08T01:21:41.743Z,17.34
2018-06-08T01:24:10.562Z,17.32
2018-06-08T01:26:38.926Z,17.31
2018-06-08T01:29:07.331Z,17.28
2018-06-08T01:31:35.704Z,17.25
2018-06-08T01:34:04.100Z,17.23
2018-06-08T01:36:32.472Z,17.20
2018-06-08T01:39:00.867Z,17.21
2018-06-08T01:41:29.239Z,17.18
2018-06-08T01:43:57.635Z,17.17
2018-06-08T01:46:26.006Z,17.09
2018-06-08T01:48:54.384Z,17.06
2018-06-08T01:51:22.774Z,17.02
2018-06-08T01:53:51.141Z,16.98
2018-06-08T01:56:19.551Z,16.95
2018-06-08T01:58:47.923Z,16.90
2018-06-08T02:01:16.338Z,16.86
2018-06-08T02:03:44.713Z,16.80
2018-06-08T02:06:13.102Z,16.77
2018-06-08T02:08:41.488Z,16.71
2018-06-08T02:11:09.879Z,16.72
2018-06-08T02:13:38.251Z,16.71
2018-06-08T02:16:06.650Z,16.69
2018-06-08T02:18:35.028Z,16.68
2018-06-08T02:21:03.425Z,16.64
2018-06-08T02:23:31.831Z,16.60
2018-06-08T02:26:00.233Z,16.57
2018-06-08T02:28:28.608Z,16.53
2018-06-08T02:30:56.999Z,16.48
2018-06-08T02:33:25.416Z,16.44
2018-06-08T02:35:53.790Z,16.39
2018-06-08T02:38:22.184Z,16.37
2018-06-08T02:40:50.573Z,16.35
2018-06-08T02:43:18.978Z,16.33
2018-06-08T02:45:47.347Z,16.31
2018-06-08T02:48:15.751Z,16.29
2018-06-08T02:50:44.131Z,16.28
2018-06-08T02:53:12.530Z,16.25
2018-06-08T02:55:40.914Z,16.22
2018-06-08T02:58:09.307Z,16.17
2018-06-08T03:00:37.715Z,16.14
2018-06-08T03:03:06.116Z,16.13
2018-06-08T03:05:34.486Z,16.13
2018-06-08T03:08:02.882Z,16.14
2018-06-08T03:10:31.268Z,16.15
2018-06-08T03:12:59.688Z,16.15
2018-06-08T03:15:28.067Z,16.16
2018-06-08T03:17:56.438Z,16.18
2018-06-08T03:20:24.835Z,16.19
2018-06-08T03:22:53.206Z,16.22
2018-06-08T03:25:21.611Z,16.24
2018-06-08T03:27:50.003Z,16.24
2018-06-08T03:30:18.429Z,16.27
2018-06-08T03:32:46.804Z,16.28
2018-06-08T03:35:15.194Z,16.32
2018-06-08T03:37:43.558Z,16.34
2018-06-08T03:40:11.950Z,16.37
2018-06-08T03:42:40.614Z,16.41
2018-06-08T03:45:09.046Z,16.46
2018-06-08T03:47:37.422Z,16.51
2018-06-08T03:50:05.798Z,16.58
2018-06-08T03:52:34.190Z,16.66
2018-06-08T03:55:02.554Z,16.85
2018-06-08T03:57:30.950Z,17.06
2018-06-08T03:59:59.330Z,17.29
2018-06-08T04:02:27.772Z,17.55
2018-06-08T04:04:56.155Z,17.83
2018-06-08T04:07:24.562Z,18.12
2018-06-08T04:09:52.933Z,18.40
2018-06-08T04:12:21.323Z,18.65
2018-06-08T04:14:49.698Z,18.90
2018-06-08T04:17:18.090Z,19.12
2018-06-08T04:19:46.453Z,19.33
2018-06-08T04:22:14.858Z,19.59
2018-06-08T04:24:43.226Z,19.85
2018-06-08T04:27:11.614Z,20.12
2018-06-08T04:29:39.994Z,20.34
2018-06-08T04:32:08.467Z,20.57
2018-06-08T04:34:36.847Z,20.81
2018-06-08T04:37:05.257Z,20.99
2018-06-08T04:39:33.627Z,21.13
2018-06-08T04:42:01.994Z,21.27
2018-06-08T04:44:30.390Z,21.36
2018-06-08T04:46:58.754Z,21.45
2018-06-08T04:49:27.155Z,21.46
2018-06-08T04:51:55.531Z,21.36
2018-06-08T04:54:24.008Z,21.30
2018-06-08T04:56:52.916Z,21.23
2018-06-08T04:59:21.862Z,21.16
2018-06-08T05:01:50.262Z,21.12
2018-06-08T05:04:18.663Z,21.06
2018-06-08T05:06:47.051Z,21.06
2018-06-08T05:09:15.454Z,21.14
2018-06-08T05:11:43.891Z,21.27
2018-06-08T05:14:12.306Z,21.42
2018-06-08T05:16:40.685Z,21.52
2018-06-08T05:19:09.058Z,21.57
2018-06-08T05:21:37.459Z,21.65
2018-06-08T05:24:05.838Z,21.68
2018-06-08T05:26:34.248Z,21.70
2018-06-08T05:29:02.634Z,21.68
2018-06-08T05:31:31.131Z,21.63
2018-06-08T05:33:59.612Z,21.58
2018-06-08T05:36:28.004Z,21.56
2018-06-08T05:38:56.378Z,21.54
2018-06-08T05:41:24.774Z,21.51
2018-06-08T05:43:53.142Z,21.50
2018-06-08T05:46:21.547Z,21.50
2018-06-08T05:48:49.926Z,21.52
2018-06-08T05:51:18.342Z,21.56
2018-06-08T05:53:46.753Z,21.64
2018-06-08T05:56:15.151Z,21.71
2018-06-08T05:58:43.543Z,21.79
2018-06-08T06:01:11.963Z,21.87
2018-06-08T06:03:40.367Z,21.98
2018-06-08T06:06:08.740Z,22.09
2018-06-08T06:08:37.147Z,22.19
2018-06-08T06:11:05.524Z,22.30
2018-06-08T06:13:33.922Z,22.38
2018-06-08T06:16:02.296Z,22.47
2018-06-08T06:18:30.690Z,22.54
2018-06-08T06:20:59.114Z,22.62
2018-06-08T06:23:27.506Z,22.70
2018-06-08T06:25:55.884Z,22.77
2018-06-08T06:28:24.277Z,22.86
2018-06-08T06:30:52.656Z,22.65
2018-06-08T06:33:21.065Z,22.98
2018-06-08T06:35:49.503Z,23.08
2018-06-08T06:38:17.877Z,23.21
2018-06-08T06:40:46.275Z,23.34
2018-06-08T06:43:14.647Z,23.46
2018-06-08T06:45:43.122Z,23.62
2018-06-08T06:48:11.490Z,23.76
2018-06-08T06:50:39.887Z,23.90
2018-06-08T06:53:08.318Z,24.05
2018-06-08T06:55:36.699Z,24.20
2018-06-08T06:58:05.071Z,24.36
2018-06-08T07:00:33.493Z,24.48
2018-06-08T07:03:01.862Z,24.61
2018-06-08T07:05:30.267Z,24.69
2018-06-08T07:07:58.647Z,24.81
2018-06-08T07:10:27.043Z,24.90
2018-06-08T07:12:55.416Z,25.01
2018-06-08T07:15:23.818Z,25.10
2018-06-08T07:17:52.189Z,25.19
2018-06-08T07:20:20.562Z,25.29
2018-06-08T07:22:48.958Z,25.39
2018-06-08T07:25:17.330Z,25.46
2018-06-08T07:27:45.722Z,25.51
2018-06-08T07:30:14.102Z,25.56
2018-06-08T07:32:42.498Z,25.65
2018-06-08T07:35:10.876Z,25.75
2018-06-08T07:37:39.270Z,25.85
2018-06-08T07:40:07.845Z,25.93
2018-06-08T07:42:36.205Z,26.05
2018-06-08T07:45:04.603Z,26.17
2018-06-08T07:47:32.991Z,26.27
2018-06-08T07:50:01.367Z,26.40
2018-06-08T07:52:29.763Z,26.50
2018-06-08T07:54:58.145Z,26.62
2018-06-08T07:57:26.519Z,26.71
2018-06-08T07:59:54.919Z,26.82
2018-06-08T08:02:23.306Z,26.92
2018-06-08T08:04:51.699Z,27.00
2018-06-08T08:07:20.075Z,27.06
2018-06-08T08:09:48.465Z,27.16
2018-06-08T08:12:16.912Z,27.22
2018-06-08T08:14:45.316Z,27.30
2018-06-08T08:17:13.690Z,27.37
2018-06-08T08:19:42.091Z,27.41
2018-06-08T08:22:10.453Z,27.45
2018-06-08T08:24:38.862Z,27.48
2018-06-08T08:27:07.235Z,27.51
2018-06-08T08:29:35.634Z,27.52
2018-06-08T08:32:04.031Z,27.55
2018-06-08T08:34:32.426Z,27.60
2018-06-08T08:37:00.804Z,27.64
2018-06-08T08:39:29.176Z,27.67
2018-06-08T08:41:57.575Z,27.72
2018-06-08T08:44:25.942Z,27.78
2018-06-08T08:46:54.339Z,27.85
2018-06-08T08:49:22.757Z,27.96
2018-06-08T08:51:51.156Z,28.06
2018-06-08T08:54:19.530Z,28.12
2018-06-08T08:56:47.971Z,28.17
2018-06-08T08:59:16.331Z,28.21
2018-06-08T09:01:44.741Z,28.27
2018-06-08T09:04:13.111Z,28.32
2018-06-08T09:06:41.511Z,28.35
2018-06-08T09:09:09.882Z,28.38
2018-06-08T09:11:38.254Z,28.42
2018-06-08T09:14:06.697Z,28.48
2018-06-08T09:16:35.066Z,28.54
2018-06-08T09:19:03.459Z,28.62
2018-06-08T09:21:31.835Z,28.72
2018-06-08T09:24:00.243Z,28.77
2018-06-08T09:26:28.623Z,28.80
2018-06-08T09:28:57.009Z,28.82
2018-06-08T09:31:25.380Z,28.85
2018-06-08T09:33:53.786Z,28.87
2018-06-08T09:36:22.165Z,28.88
2018-06-08T09:38:50.554Z,28.90
2018-06-08T09:41:18.932Z,28.94
2018-06-08T09:43:47.327Z,28.98
2018-06-08T09:46:15.724Z,29.05
2018-06-08T09:48:44.143Z,29.11
2018-06-08T09:51:12.535Z,29.16
2018-06-08T09:53:40.918Z,29.18
2018-06-08T09:56:09.321Z,29.24
2018-06-08T09:58:37.835Z,29.31
2018-06-08T10:01:06.264Z,29.38
2018-06-08T10:03:34.635Z,29.43
2018-06-08T10:06:03.070Z,29.43
2018-06-08T10:08:31.434Z,29.39
2018-06-08T10:10:59.834Z,29.37
2018-06-08T10:13:28.310Z,29.38
2018-06-08T10:15:56.702Z,29.41
2018-06-08T10:18:25.067Z,29.45
2018-06-08T10:20:53.487Z,29.49
2018-06-08T10:23:21.883Z,29.57
2018-06-08T10:25:50.255Z,29.59
2018-06-08T10:28:18.666Z,29.61
2018-06-08T10:30:47.051Z,29.62
2018-06-08T10:33:15.450Z,29.64
2018-06-08T10:35:43.831Z,29.67
2018-06-08T10:38:12.226Z,29.68
2018-06-08T10:40:40.598Z,29.72
2018-06-08T10:43:08.996Z,29.77
2018-06-08T10:45:37.447Z,29.84
2018-06-08T10:48:05.858Z,29.92
2018-06-08T10:50:34.236Z,29.98
2018-06-08T10:53:02.635Z,30.02
2018-06-08T10:55:31.021Z,30.06
2018-06-08T10:57:59.434Z,30.09
2018-06-08T11:00:27.826Z,30.10
2018-06-08T11:02:56.199Z,30.13
2018-06-08T11:05:24.586Z,30.17
2018-06-08T11:07:52.954Z,30.25
2018-06-08T11:10:21.345Z,30.29
2018-06-08T11:12:49.719Z,30.33
2018-06-08T11:15:18.114Z,30.38
2018-06-08T11:17:46.482Z,30.45
2018-06-08T11:20:14.890Z,30.47
2018-06-08T11:22:43.261Z,30.52
2018-06-08T11:25:11.651Z,30.52
2018-06-08T11:27:40.019Z,30.53
2018-06-08T11:30:08.430Z,30.58
2018-06-08T11:32:36.793Z,30.64
2018-06-08T11:35:05.163Z,30.68
2018-06-08T11:37:33.555Z,30.65
2018-06-08T11:40:01.931Z,30.60
2018-06-08T11:42:30.326Z,30.57
2018-06-08T11:44:58.695Z,30.60
2018-06-08T11:47:27.078Z,30.62
2018-06-08T11:49:55.450Z,30.63
2018-06-08T11:52:23.846Z,30.66
2018-06-08T11:54:52.213Z,30.71
2018-06-08T11:57:20.602Z,30.76
2018-06-08T11:59:48.961Z,30.81
2018-06-08T12:02:17.373Z,30.82
2018-06-08T12:04:45.742Z,30.84
2018-06-08T12:07:14.138Z,30.90
2018-06-08T12:09:42.526Z,30.96
2018-06-08T12:12:10.915Z,31.03
2018-06-08T12:14:39.287Z,31.07
2018-06-08T12:17:07.694Z,31.11
2018-06-08T12:19:36.066Z,31.11
2018-06-08T12:22:04.482Z,31.09
2018-06-08T12:24:32.922Z,31.06
2018-06-08T12:27:01.293Z,31.03
2018-06-08T12:29:29.698Z,31.03
2018-06-08T12:31:58.070Z,31.02
2018-06-08T12:34:26.471Z,31.01
2018-06-08T12:36:54.848Z,30.99
2018-06-08T12:39:23.243Z,30.96
2018-06-08T12:41:51.610Z,30.97
2018-06-08T12:44:20.001Z,31.00
2018-06-08T12:46:48.375Z,31.03
2018-06-08T12:49:18.388Z,31.07
2018-06-08T12:51:46.750Z,31.11
2018-06-08T12:54:15.167Z,31.15
2018-06-08T12:56:43.552Z,31.18
2018-06-08T12:59:11.931Z,31.22
2018-06-08T13:01:40.356Z,31.24
2018-06-08T13:04:08.734Z,31.26
2018-06-08T13:06:37.140Z,31.32
2018-06-08T13:09:07.320Z,31.37
2018-06-08T13:11:35.978Z,31.39
2018-06-08T13:14:04.366Z,31.41
2018-06-08T13:16:32.762Z,31.37
2018-06-08T13:19:01.399Z,31.32
2018-06-08T13:21:29.798Z,31.30
2018-06-08T13:23:58.184Z,31.25
2018-06-08T13:26:26.581Z,31.25
2018-06-08T13:28:54.966Z,31.24
2018-06-08T13:31:23.364Z,31.27
2018-06-08T13:33:51.743Z,31.30
2018-06-08T13:36:20.189Z,31.30
2018-06-08T13:38:48.555Z,31.28
2018-06-08T13:41:16.921Z,31.24
2018-06-08T13:43:45.315Z,31.22
2018-06-08T13:46:25.179Z,31.24
2018-06-08T13:48:53.555Z,31.31
2018-06-08T13:51:21.934Z,31.37
2018-06-08T13:53:50.334Z,31.40
2018-06-08T13:56:18.717Z,31.41
2018-06-08T13:58:47.122Z,31.42
2018-06-08T14:01:15.512Z,31.41
2018-06-08T14:03:43.905Z,31.42
2018-06-08T14:06:12.279Z,31.43
2018-06-08T14:08:40.690Z,31.43
2018-06-08T14:11:09.071Z,31.46
2018-06-08T14:13:37.473Z,31.48
2018-06-08T14:16:05.844Z,31.47
2018-06-08T14:18:34.235Z,31.45
2018-06-08T14:21:02.614Z,31.43
2018-06-08T14:23:31.014Z,31.40
2018-06-08T14:25:59.381Z,31.40
2018-06-08T14:28:27.783Z,31.37
2018-06-08T14:30:56.153Z,31.33
2018-06-08T14:33:24.554Z,31.29
2018-06-08T14:35:52.928Z,31.30
2018-06-08T14:38:21.333Z,31.30
2018-06-08T14:40:49.746Z,31.25
2018-06-08T14:43:18.109Z,31.24
2018-06-08T14:45:46.510Z,31.24
2018-06-08T14:48:14.887Z,31.28
2018-06-08T14:50:43.299Z,31.29
2018-06-08T14:53:11.683Z,31.30
2018-06-08T14:55:40.094Z,31.29
2018-06-08T14:58:08.471Z,31.27
2018-06-08T15:00:36.892Z,31.24
2018-06-08T15:03:05.759Z,31.18
2018-06-08T15:05:34.161Z,31.17
2018-06-08T15:08:02.542Z,31.19
2018-06-08T15:10:30.999Z,31.18
2018-06-08T15:12:59.371Z,31.19
2018-06-08T15:15:27.798Z,31.19
2018-06-08T15:17:56.162Z,31.21
2018-06-08T15:20:24.551Z,31.19
2018-06-08T15:22:52.926Z,31.16
2018-06-08T15:25:21.324Z,31.14
2018-06-08T15:27:49.745Z,31.15
2018-06-08T15:30:18.179Z,31.16
2018-06-08T15:32:46.554Z,31.18
2018-06-08T15:35:14.932Z,31.12
2018-06-08T15:37:43.334Z,31.08
2018-06-08T15:40:11.706Z,31.07
2018-06-08T15:42:40.115Z,31.06
2018-06-08T15:45:08.514Z,31.00
2018-06-08T15:47:36.911Z,30.98
2018-06-08T15:50:05.428Z,30.98
2018-06-08T15:52:33.823Z,30.97
2018-06-08T15:55:02.208Z,30.96
2018-06-08T15:57:30.610Z,30.94
2018-06-08T15:59:58.991Z,30.89
2018-06-08T16:02:27.415Z,30.81
2018-06-08T16:04:55.786Z,30.72
2018-06-08T16:07:24.182Z,30.65
2018-06-08T16:09:52.562Z,30.56
2018-06-08T16:12:20.969Z,30.50
2018-06-08T16:14:49.355Z,30.43
2018-06-08T16:17:17.754Z,30.40
2018-06-08T16:19:46.127Z,30.38
2018-06-08T16:22:14.546Z,30.40
2018-06-08T16:24:42.922Z,30.46
2018-06-08T16:27:11.294Z,30.58
2018-06-08T16:29:39.695Z,30.70
2018-06-08T16:32:08.071Z,30.79
2018-06-08T16:34:36.471Z,30.83
2018-06-08T16:37:04.866Z,30.89
2018-06-08T16:39:33.266Z,30.95
2018-06-08T16:42:01.650Z,31.03
2018-06-08T16:44:30.056Z,31.10
2018-06-08T16:46:58.431Z,31.14
2018-06-08T16:49:26.846Z,31.19
2018-06-08T16:51:55.218Z,31.17
2018-06-08T16:54:23.625Z,31.14
2018-06-08T16:56:51.998Z,31.14
2018-06-08T16:59:20.427Z,31.15
2018-06-08T17:01:48.823Z,31.16
2018-06-08T17:04:17.232Z,31.09
2018-06-08T17:06:45.651Z,30.98
2018-06-08T17:09:14.057Z,30.99
2018-06-08T17:11:42.430Z,30.92
2018-06-08T17:14:10.854Z,30.93
2018-06-08T17:16:39.239Z,30.89
2018-06-08T17:19:07.679Z,30.83
2018-06-08T17:21:36.071Z,30.77
2018-06-08T17:24:04.487Z,30.67
2018-06-08T17:26:32.913Z,30.52
2018-06-08T17:29:01.286Z,30.34
2018-06-08T17:31:29.692Z,30.12
2018-06-08T17:33:58.099Z,29.93
2018-06-08T17:36:26.495Z,29.82
2018-06-08T17:38:54.880Z,29.75
2018-06-08T17:41:23.282Z,29.66
2018-06-08T17:43:51.645Z,29.55
2018-06-08T17:46:20.042Z,29.38
2018-06-08T17:48:48.423Z,29.25
2018-06-08T17:51:16.823Z,29.10
2018-06-08T17:53:45.199Z,28.91
2018-06-08T17:56:13.590Z,28.66
2018-06-08T17:58:41.959Z,28.35
2018-06-08T18:01:10.384Z,28.07
2018-06-08T18:03:38.766Z,27.78
2018-06-08T18:06:07.224Z,27.51
2018-06-08T18:08:35.574Z,27.29
2018-06-08T18:11:03.978Z,27.03
2018-06-08T18:13:32.398Z,26.78
2018-06-08T18:16:00.825Z,26.56
2018-06-08T18:18:29.198Z,26.37
2018-06-08T18:20:57.598Z,26.19
2018-06-08T18:23:26.011Z,26.05
2018-06-08T18:25:54.378Z,25.91
2018-06-08T18:28:22.775Z,25.80
2018-06-08T18:30:51.174Z,25.71
2018-06-08T18:33:19.630Z,25.62
2018-06-08T18:35:47.987Z,25.50
2018-06-08T18:38:16.383Z,25.37
2018-06-08T18:40:44.749Z,25.25
2018-06-08T18:43:13.167Z,25.14
2018-06-08T18:45:41.542Z,25.05
2018-06-08T18:48:09.939Z,24.95
2018-06-08T18:50:38.307Z,24.85
2018-06-08T18:53:06.701Z,24.77
2018-06-08T18:55:35.074Z,24.67
2018-06-08T18:58:03.547Z,24.55
2018-06-08T19:00:32.039Z,24.45
2018-06-08T19:03:00.580Z,24.32
2018-06-08T19:05:28.952Z,24.21
2018-06-08T19:07:57.403Z,24.13
2018-06-08T19:10:25.780Z,24.02
2018-06-08T19:12:54.152Z,23.90
2018-06-08T19:15:22.551Z,23.81
2018-06-08T19:17:50.926Z,23.71
2018-06-08T19:20:19.335Z,23.63
2018-06-08T19:22:47.718Z,23.53
2018-06-08T19:25:16.122Z,23.44
2018-06-08T19:27:44.503Z,23.35
2018-06-08T19:30:12.909Z,23.24
2018-06-08T19:32:41.290Z,23.15
2018-06-08T19:35:09.743Z,23.07
2018-06-08T19:37:38.125Z,23.00
2018-06-08T19:40:06.526Z,22.94
2018-06-08T19:42:34.906Z,22.88
2018-06-08T19:45:03.310Z,22.84
2018-06-08T19:47:31.688Z,22.77
2018-06-08T19:50:00.087Z,22.71
2018-06-08T19:52:28.466Z,22.65
2018-06-08T19:54:56.846Z,22.61
2018-06-08T19:57:25.251Z,22.54
2018-06-08T19:59:53.627Z,22.48
2018-06-08T20:02:22.151Z,22.41
2018-06-08T20:04:50.539Z,22.36
2018-06-08T20:07:18.940Z,22.28
2018-06-08T20:09:47.309Z,22.22
2018-06-08T20:12:15.704Z,22.14
2018-06-08T20:14:44.065Z,22.06
2018-06-08T20:17:12.462Z,21.98
2018-06-08T20:19:40.832Z,21.90
2018-06-08T20:22:09.222Z,21.81
2018-06-08T20:24:37.599Z,21.71
2018-06-08T20:27:06.381Z,21.63
2018-06-08T20:29:34.746Z,21.56
2018-06-08T20:32:03.145Z,21.50
2018-06-08T20:34:31.520Z,21.45
2018-06-08T20:36:59.917Z,21.37
2018-06-08T20:39:28.284Z,21.34
2018-06-08T20:41:56.695Z,21.31
2018-06-08T20:44:25.063Z,21.26
2018-06-08T20:46:53.443Z,21.22
2018-06-08T20:49:21.957Z,21.17
2018-06-08T20:51:50.411Z,21.09
2018-06-08T20:54:18.801Z,21.02
2018-06-08T20:56:57.203Z,20.95
2018-06-08T20:59:25.598Z,20.87
2018-06-08T21:01:53.997Z,20.79
2018-06-08T21:04:22.409Z,20.71
2018-06-08T21:06:50.779Z,20.61
2018-06-08T21:09:19.184Z,20.50
2018-06-08T21:11:47.555Z,20.42
2018-06-08T21:14:15.950Z,20.35
2018-06-08T21:16:44.331Z,20.29
2018-06-08T21:19:12.730Z,20.21
2018-06-08T21:21:41.102Z,20.13
2018-06-08T21:24:09.495Z,20.04
2018-06-08T21:26:37.874Z,19.98
2018-06-08T21:29:06.295Z,19.91
2018-06-08T21:31:34.665Z,19.85
2018-06-08T21:34:03.094Z,19.76
2018-06-08T21:36:31.491Z,19.68
2018-06-08T21:38:59.862Z,19.60
2018-06-08T21:41:29.167Z,19.51
2018-06-08T21:43:57.543Z,19.44
2018-06-08T21:46:25.934Z,19.34
2018-06-08T21:48:54.302Z,19.25
2018-06-08T21:51:22.690Z,19.17
2018-06-08T21:53:51.054Z,19.07
2018-06-08T21:56:19.451Z,18.95
2018-06-08T21:58:47.826Z,18.82
2018-06-08T22:01:16.246Z,18.68
2018-06-08T22:03:44.611Z,18.54
2018-06-08T22:06:13.003Z,18.39
2018-06-08T22:08:41.382Z,18.27
2018-06-08T22:11:09.771Z,18.15
2018-06-08T22:13:38.142Z,18.05
2018-06-08T22:16:06.553Z,17.94
2018-06-08T22:18:34.966Z,17.82
2018-06-08T22:21:03.339Z,17.70
2018-06-08T22:23:31.734Z,17.64
2018-06-08T22:26:00.114Z,17.59
2018-06-08T22:28:28.510Z,17.56
2018-06-08T22:30:56.887Z,17.54
2018-06-08T22:33:25.275Z,17.51
2018-06-08T22:35:53.646Z,17.48
2018-06-08T22:38:22.045Z,17.44
2018-06-08T22:40:50.420Z,17.40
2018-06-08T22:43:18.809Z,17.38
2018-06-08T22:45:47.186Z,17.35
2018-06-08T22:48:15.582Z,17.32
2018-06-08T22:50:43.948Z,17.30
2018-06-08T22:53:12.342Z,17.25
2018-06-08T22:55:40.720Z,17.21
2018-06-08T22:58:09.303Z,17.17
2018-06-08T23:00:37.674Z,17.09
2018-06-08T23:03:06.097Z,16.96
2018-06-08T23:05:34.468Z,16.86
2018-06-08T23:08:02.839Z,16.77
2018-06-08T23:10:31.230Z,16.70
2018-06-08T23:12:59.634Z,16.64
2018-06-08T23:15:28.058Z,16.61
2018-06-08T23:17:56.440Z,16.58
2018-06-08T23:20:24.838Z,16.56
2018-06-08T23:22:53.203Z,16.51
2018-06-08T23:25:21.594Z,16.47
2018-06-08T23:27:49.971Z,16.40
2018-06-08T23:30:18.377Z,16.36
2018-06-08T23:32:46.761Z,16.30
2018-06-08T23:35:15.145Z,16.25
2018-06-08T23:37:43.518Z,16.19
2018-06-08T23:40:11.910Z,16.13
2018-06-08T23:42:40.270Z,16.08
2018-06-08T23:45:08.656Z,16.03
2018-06-08T23:47:37.030Z,16.01
2018-06-08T23:50:05.418Z,15.97
2018-06-08T23:52:33.791Z,15.95
2018-06-08T23:55:02.196Z,15.91
2018-06-08T23:57:30.674Z,15.88
2018-06-08T23:59:59.065Z,15.84
